sensor_id;sensor_type;location;lat;lon;timestamp;P1;durP1;ratioP1;P2;durP2;ratioP2
31694;SDS011;18289;51.330;4.946;2022-09-09T00:00:38;3.05;;;2.30;;
31694;SDS011;18289;51.330;4.946;2022-09-09T00:03:14;3.05;;;2.13;;
31694;SDS011;18289;51.330;4.946;2022-09-09T00:11:04;4.45;;;2.38;;
31694;SDS011;18289;51.330;4.946;2022-09-09T00:13:33;5.38;;;2.22;;
31694;SDS011;18289;51.330;4.946;2022-09-09T00:16:08;2.53;;;2.20;;
31694;SDS011;18289;51.330;4.946;2022-09-09T00:21:39;3.03;;;2.45;;
31694;SDS011;18289;51.330;4.946;2022-09-09T00:24:23;3.75;;;2.30;;
31694;SDS011;18289;51.330;4.946;2022-09-09T00:26:53;4.07;;;2.37;;
31694;SDS011;18289;51.330;4.946;2022-09-09T00:29:44;4.63;;;2.85;;
31694;SDS011;18289;51.330;4.946;2022-09-09T00:35:03;3.72;;;2.33;;
31694;SDS011;18289;51.330;4.946;2022-09-09T00:37:47;3.22;;;2.22;;
31694;SDS011;18289;51.330;4.946;2022-09-09T00:43:08;5.15;;;2.50;;
31694;SDS011;18289;51.330;4.946;2022-09-09T00:51:57;3.65;;;2.25;;
31694;SDS011;18289;51.330;4.946;2022-09-09T00:54:33;2.70;;;2.30;;
31694;SDS011;18289;51.330;4.946;2022-09-09T00:57:14;3.17;;;2.20;;
31694;SDS011;18289;51.330;4.946;2022-09-09T00:59:48;3.10;;;2.22;;
31694;SDS011;18289;51.330;4.946;2022-09-09T01:04:53;6.05;;;2.38;;
31694;SDS011;18289;51.330;4.946;2022-09-09T01:07:19;6.35;;;2.53;;
31694;SDS011;18289;51.330;4.946;2022-09-09T01:12:30;5.63;;;2.20;;
31694;SDS011;18289;51.330;4.946;2022-09-09T01:15:11;7.18;;;2.80;;
31694;SDS011;18289;51.330;4.946;2022-09-09T01:20:17;4.10;;;2.30;;
31694;SDS011;18289;51.330;4.946;2022-09-09T01:25:22;5.65;;;2.30;;
31694;SDS011;18289;51.330;4.946;2022-09-09T01:28:12;4.60;;;2.63;;
31694;SDS011;18289;51.330;4.946;2022-09-09T01:30:43;3.78;;;2.05;;
31694;SDS011;18289;51.330;4.946;2022-09-09T01:33:13;7.00;;;2.90;;
31694;SDS011;18289;51.330;4.946;2022-09-09T01:38:21;7.90;;;2.60;;
31694;SDS011;18289;51.330;4.946;2022-09-09T01:40:48;4.55;;;2.35;;
31694;SDS011;18289;51.330;4.946;2022-09-09T01:43:17;6.80;;;2.40;;
31694;SDS011;18289;51.330;4.946;2022-09-09T01:45:44;4.18;;;2.50;;
31694;SDS011;18289;51.330;4.946;2022-09-09T01:48:13;5.32;;;2.60;;
31694;SDS011;18289;51.330;4.946;2022-09-09T01:50:39;2.92;;;2.25;;
31694;SDS011;18289;51.330;4.946;2022-09-09T01:53:05;6.30;;;2.55;;
31694;SDS011;18289;51.330;4.946;2022-09-09T01:55:32;3.60;;;2.40;;
31694;SDS011;18289;51.330;4.946;2022-09-09T02:00:29;3.13;;;2.20;;
31694;SDS011;18289;51.330;4.946;2022-09-09T02:05:49;6.13;;;2.50;;
31694;SDS011;18289;51.330;4.946;2022-09-09T02:08:26;4.45;;;2.00;;
31694;SDS011;18289;51.330;4.946;2022-09-09T02:13:34;3.38;;;2.28;;
31694;SDS011;18289;51.330;4.946;2022-09-09T02:21:18;3.78;;;2.38;;
31694;SDS011;18289;51.330;4.946;2022-09-09T02:23:44;4.53;;;2.72;;
31694;SDS011;18289;51.330;4.946;2022-09-09T02:26:14;4.15;;;2.25;;
31694;SDS011;18289;51.330;4.946;2022-09-09T02:28:45;6.60;;;2.38;;
31694;SDS011;18289;51.330;4.946;2022-09-09T02:31:14;5.18;;;2.53;;
31694;SDS011;18289;51.330;4.946;2022-09-09T02:33:45;5.88;;;2.30;;
31694;SDS011;18289;51.330;4.946;2022-09-09T02:36:16;5.40;;;2.47;;
31694;SDS011;18289;51.330;4.946;2022-09-09T02:38:45;8.32;;;2.85;;
31694;SDS011;18289;51.330;4.946;2022-09-09T02:41:20;6.80;;;2.70;;
31694;SDS011;18289;51.330;4.946;2022-09-09T02:43:50;4.90;;;2.50;;
31694;SDS011;18289;51.330;4.946;2022-09-09T02:56:35;7.10;;;3.25;;
31694;SDS011;18289;51.330;4.946;2022-09-09T02:59:05;3.97;;;2.60;;
31694;SDS011;18289;51.330;4.946;2022-09-09T03:01:31;6.20;;;2.90;;
31694;SDS011;18289;51.330;4.946;2022-09-09T03:04:01;6.18;;;2.80;;
31694;SDS011;18289;51.330;4.946;2022-09-09T03:06:29;8.65;;;2.80;;
31694;SDS011;18289;51.330;4.946;2022-09-09T03:08:55;5.88;;;3.10;;
31694;SDS011;18289;51.330;4.946;2022-09-09T03:11:24;5.63;;;2.90;;
31694;SDS011;18289;51.330;4.946;2022-09-09T03:13:50;4.82;;;2.45;;
31694;SDS011;18289;51.330;4.946;2022-09-09T03:16:16;6.97;;;2.92;;
31694;SDS011;18289;51.330;4.946;2022-09-09T03:18:42;6.13;;;2.78;;
31694;SDS011;18289;51.330;4.946;2022-09-09T03:21:10;5.95;;;2.95;;
31694;SDS011;18289;51.330;4.946;2022-09-09T03:23:36;3.33;;;2.75;;
31694;SDS011;18289;51.330;4.946;2022-09-09T03:26:02;5.72;;;2.90;;
31694;SDS011;18289;51.330;4.946;2022-09-09T03:28:27;7.53;;;3.42;;
31694;SDS011;18289;51.330;4.946;2022-09-09T03:31:03;7.97;;;3.13;;
31694;SDS011;18289;51.330;4.946;2022-09-09T03:33:30;6.68;;;2.53;;
31694;SDS011;18289;51.330;4.946;2022-09-09T03:35:56;9.07;;;3.28;;
31694;SDS011;18289;51.330;4.946;2022-09-09T03:38:24;4.75;;;2.83;;
31694;SDS011;18289;51.330;4.946;2022-09-09T03:40:51;11.00;;;3.85;;
31694;SDS011;18289;51.330;4.946;2022-09-09T03:45:46;7.88;;;3.17;;
31694;SDS011;18289;51.330;4.946;2022-09-09T03:48:13;11.02;;;3.33;;
31694;SDS011;18289;51.330;4.946;2022-09-09T03:50:49;6.50;;;2.78;;
31694;SDS011;18289;51.330;4.946;2022-09-09T03:53:17;5.97;;;2.75;;
31694;SDS011;18289;51.330;4.946;2022-09-09T03:55:45;8.45;;;3.08;;
31694;SDS011;18289;51.330;4.946;2022-09-09T03:58:14;7.22;;;2.90;;
31694;SDS011;18289;51.330;4.946;2022-09-09T04:00:41;7.75;;;2.95;;
31694;SDS011;18289;51.330;4.946;2022-09-09T04:03:09;5.82;;;3.05;;
31694;SDS011;18289;51.330;4.946;2022-09-09T04:05:36;4.95;;;3.03;;
31694;SDS011;18289;51.330;4.946;2022-09-09T04:08:07;7.82;;;3.00;;
31694;SDS011;18289;51.330;4.946;2022-09-09T04:10:34;8.10;;;3.38;;
31694;SDS011;18289;51.330;4.946;2022-09-09T04:13:04;4.93;;;2.95;;
31694;SDS011;18289;51.330;4.946;2022-09-09T04:15:30;6.00;;;3.00;;
31694;SDS011;18289;51.330;4.946;2022-09-09T04:17:56;4.75;;;2.63;;
31694;SDS011;18289;51.330;4.946;2022-09-09T04:20:22;5.43;;;2.95;;
31694;SDS011;18289;51.330;4.946;2022-09-09T04:22:48;7.38;;;2.85;;
31694;SDS011;18289;51.330;4.946;2022-09-09T04:25:14;5.07;;;2.88;;
31694;SDS011;18289;51.330;4.946;2022-09-09T04:27:40;7.90;;;2.80;;
31694;SDS011;18289;51.330;4.946;2022-09-09T04:30:06;7.63;;;3.28;;
31694;SDS011;18289;51.330;4.946;2022-09-09T04:32:33;7.22;;;3.00;;
31694;SDS011;18289;51.330;4.946;2022-09-09T04:34:59;7.45;;;3.67;;
31694;SDS011;18289;51.330;4.946;2022-09-09T04:37:25;8.05;;;3.00;;
31694;SDS011;18289;51.330;4.946;2022-09-09T04:39:50;11.27;;;2.83;;
31694;SDS011;18289;51.330;4.946;2022-09-09T04:42:16;9.40;;;2.67;;
31694;SDS011;18289;51.330;4.946;2022-09-09T04:44:44;5.28;;;2.85;;
31694;SDS011;18289;51.330;4.946;2022-09-09T04:47:13;7.95;;;2.90;;
31694;SDS011;18289;51.330;4.946;2022-09-09T04:49:45;7.35;;;3.10;;
31694;SDS011;18289;51.330;4.946;2022-09-09T04:52:11;7.22;;;2.72;;
31694;SDS011;18289;51.330;4.946;2022-09-09T04:54:37;8.65;;;3.05;;
31694;SDS011;18289;51.330;4.946;2022-09-09T04:57:03;12.27;;;3.45;;
31694;SDS011;18289;51.330;4.946;2022-09-09T04:59:30;5.07;;;2.60;;
31694;SDS011;18289;51.330;4.946;2022-09-09T05:01:55;7.40;;;2.90;;
31694;SDS011;18289;51.330;4.946;2022-09-09T05:04:21;9.88;;;3.33;;
31694;SDS011;18289;51.330;4.946;2022-09-09T05:06:47;6.68;;;3.05;;
31694;SDS011;18289;51.330;4.946;2022-09-09T05:09:13;7.60;;;3.33;;
31694;SDS011;18289;51.330;4.946;2022-09-09T05:11:39;9.07;;;2.90;;
31694;SDS011;18289;51.330;4.946;2022-09-09T05:14:05;8.70;;;3.40;;
31694;SDS011;18289;51.330;4.946;2022-09-09T05:16:30;15.13;;;4.50;;
31694;SDS011;18289;51.330;4.946;2022-09-09T05:18:57;8.63;;;3.10;;
31694;SDS011;18289;51.330;4.946;2022-09-09T05:21:24;8.45;;;3.50;;
31694;SDS011;18289;51.330;4.946;2022-09-09T05:23:51;8.65;;;2.97;;
31694;SDS011;18289;51.330;4.946;2022-09-09T05:26:18;9.50;;;2.80;;
31694;SDS011;18289;51.330;4.946;2022-09-09T05:28:45;10.45;;;3.35;;
31694;SDS011;18289;51.330;4.946;2022-09-09T05:31:12;7.00;;;3.22;;
31694;SDS011;18289;51.330;4.946;2022-09-09T05:33:41;8.35;;;3.30;;
31694;SDS011;18289;51.330;4.946;2022-09-09T05:36:12;8.47;;;3.17;;
31694;SDS011;18289;51.330;4.946;2022-09-09T05:38:40;8.07;;;2.80;;
31694;SDS011;18289;51.330;4.946;2022-09-09T05:41:06;9.13;;;2.92;;
31694;SDS011;18289;51.330;4.946;2022-09-09T05:43:32;8.77;;;3.67;;
31694;SDS011;18289;51.330;4.946;2022-09-09T05:46:03;7.75;;;3.30;;
31694;SDS011;18289;51.330;4.946;2022-09-09T05:48:34;7.70;;;2.65;;
31694;SDS011;18289;51.330;4.946;2022-09-09T05:51:03;9.85;;;3.03;;
31694;SDS011;18289;51.330;4.946;2022-09-09T05:53:30;9.93;;;3.22;;
31694;SDS011;18289;51.330;4.946;2022-09-09T05:56:01;8.82;;;3.60;;
31694;SDS011;18289;51.330;4.946;2022-09-09T05:58:31;9.68;;;4.20;;
31694;SDS011;18289;51.330;4.946;2022-09-09T06:01:02;10.00;;;3.40;;
31694;SDS011;18289;51.330;4.946;2022-09-09T06:03:29;7.47;;;3.72;;
31694;SDS011;18289;51.330;4.946;2022-09-09T06:05:59;10.18;;;3.63;;
31694;SDS011;18289;51.330;4.946;2022-09-09T06:08:27;12.07;;;3.22;;
31694;SDS011;18289;51.330;4.946;2022-09-09T06:10:53;7.20;;;3.40;;
31694;SDS011;18289;51.330;4.946;2022-09-09T06:13:18;6.45;;;3.05;;
31694;SDS011;18289;51.330;4.946;2022-09-09T06:15:50;7.10;;;3.15;;
31694;SDS011;18289;51.330;4.946;2022-09-09T06:18:17;6.22;;;3.33;;
31694;SDS011;18289;51.330;4.946;2022-09-09T06:20:55;7.25;;;3.00;;
31694;SDS011;18289;51.330;4.946;2022-09-09T06:23:32;13.32;;;2.92;;
31694;SDS011;18289;51.330;4.946;2022-09-09T06:26:01;6.30;;;3.05;;
31694;SDS011;18289;51.330;4.946;2022-09-09T06:28:30;10.13;;;3.25;;
31694;SDS011;18289;51.330;4.946;2022-09-09T06:31:00;8.25;;;3.55;;
31694;SDS011;18289;51.330;4.946;2022-09-09T06:33:32;10.07;;;3.35;;
31694;SDS011;18289;51.330;4.946;2022-09-09T06:36:01;9.95;;;3.15;;
31694;SDS011;18289;51.330;4.946;2022-09-09T06:38:28;9.02;;;3.67;;
31694;SDS011;18289;51.330;4.946;2022-09-09T06:40:55;9.88;;;3.03;;
31694;SDS011;18289;51.330;4.946;2022-09-09T06:43:25;7.85;;;3.15;;
31694;SDS011;18289;51.330;4.946;2022-09-09T06:45:58;10.93;;;4.05;;
31694;SDS011;18289;51.330;4.946;2022-09-09T06:48:26;9.05;;;3.10;;
31694;SDS011;18289;51.330;4.946;2022-09-09T06:53:43;7.07;;;3.03;;
31694;SDS011;18289;51.330;4.946;2022-09-09T06:58:44;10.65;;;3.30;;
31694;SDS011;18289;51.330;4.946;2022-09-09T07:01:13;8.65;;;3.45;;
31694;SDS011;18289;51.330;4.946;2022-09-09T07:03:41;9.48;;;3.30;;
31694;SDS011;18289;51.330;4.946;2022-09-09T07:06:08;9.60;;;2.97;;
31694;SDS011;18289;51.330;4.946;2022-09-09T07:08:48;8.52;;;3.03;;
31694;SDS011;18289;51.330;4.946;2022-09-09T07:11:15;7.28;;;3.53;;
31694;SDS011;18289;51.330;4.946;2022-09-09T07:13:41;10.13;;;3.55;;
31694;SDS011;18289;51.330;4.946;2022-09-09T07:16:08;10.82;;;3.17;;
31694;SDS011;18289;51.330;4.946;2022-09-09T07:18:35;9.77;;;3.15;;
31694;SDS011;18289;51.330;4.946;2022-09-09T07:21:02;9.35;;;2.92;;
31694;SDS011;18289;51.330;4.946;2022-09-09T07:23:28;8.32;;;2.80;;
31694;SDS011;18289;51.330;4.946;2022-09-09T07:25:55;8.45;;;3.30;;
31694;SDS011;18289;51.330;4.946;2022-09-09T07:28:24;10.52;;;2.95;;
31694;SDS011;18289;51.330;4.946;2022-09-09T07:30:58;6.13;;;2.70;;
31694;SDS011;18289;51.330;4.946;2022-09-09T07:33:27;8.85;;;2.75;;
31694;SDS011;18289;51.330;4.946;2022-09-09T07:36:01;9.05;;;2.53;;
31694;SDS011;18289;51.330;4.946;2022-09-09T07:38:37;7.13;;;2.55;;
31694;SDS011;18289;51.330;4.946;2022-09-09T07:41:17;6.88;;;2.30;;
31694;SDS011;18289;51.330;4.946;2022-09-09T07:43:47;6.93;;;2.38;;
31694;SDS011;18289;51.330;4.946;2022-09-09T07:46:14;7.75;;;3.00;;
31694;SDS011;18289;51.330;4.946;2022-09-09T07:48:45;8.23;;;3.33;;
31694;SDS011;18289;51.330;4.946;2022-09-09T07:51:16;9.07;;;2.63;;
31694;SDS011;18289;51.330;4.946;2022-09-09T07:53:45;6.75;;;2.00;;
31694;SDS011;18289;51.330;4.946;2022-09-09T07:56:15;5.55;;;2.22;;
31694;SDS011;18289;51.330;4.946;2022-09-09T07:58:44;5.85;;;2.83;;
31694;SDS011;18289;51.330;4.946;2022-09-09T08:01:21;9.50;;;3.33;;
31694;SDS011;18289;51.330;4.946;2022-09-09T08:03:53;12.60;;;2.95;;
31694;SDS011;18289;51.330;4.946;2022-09-09T08:06:26;7.63;;;3.47;;
31694;SDS011;18289;51.330;4.946;2022-09-09T08:08:58;8.18;;;2.78;;
31694;SDS011;18289;51.330;4.946;2022-09-09T08:11:24;11.25;;;2.42;;
31694;SDS011;18289;51.330;4.946;2022-09-09T08:13:51;7.00;;;2.70;;
31694;SDS011;18289;51.330;4.946;2022-09-09T08:16:19;4.55;;;2.50;;
31694;SDS011;18289;51.330;4.946;2022-09-09T08:18:49;10.25;;;3.22;;
31694;SDS011;18289;51.330;4.946;2022-09-09T08:21:17;10.98;;;2.70;;
31694;SDS011;18289;51.330;4.946;2022-09-09T08:23:46;10.02;;;3.15;;
31694;SDS011;18289;51.330;4.946;2022-09-09T08:26:14;5.50;;;2.22;;
31694;SDS011;18289;51.330;4.946;2022-09-09T08:28:41;7.60;;;2.50;;
31694;SDS011;18289;51.330;4.946;2022-09-09T08:31:08;4.60;;;2.25;;
31694;SDS011;18289;51.330;4.946;2022-09-09T08:33:39;6.60;;;2.50;;
31694;SDS011;18289;51.330;4.946;2022-09-09T08:36:08;8.55;;;2.72;;
31694;SDS011;18289;51.330;4.946;2022-09-09T08:38:36;8.18;;;2.70;;
31694;SDS011;18289;51.330;4.946;2022-09-09T08:44:08;8.68;;;2.50;;
31694;SDS011;18289;51.330;4.946;2022-09-09T08:47:02;7.20;;;2.35;;
31694;SDS011;18289;51.330;4.946;2022-09-09T08:52:29;9.35;;;2.40;;
31694;SDS011;18289;51.330;4.946;2022-09-09T08:55:32;6.90;;;2.63;;
31694;SDS011;18289;51.330;4.946;2022-09-09T08:58:08;6.25;;;2.70;;
31694;SDS011;18289;51.330;4.946;2022-09-09T09:12:06;12.70;;;2.95;;
31694;SDS011;18289;51.330;4.946;2022-09-09T09:14:40;5.93;;;3.17;;
31694;SDS011;18289;51.330;4.946;2022-09-09T09:17:10;7.15;;;2.55;;
31694;SDS011;18289;51.330;4.946;2022-09-09T09:19:40;5.85;;;2.08;;
31694;SDS011;18289;51.330;4.946;2022-09-09T09:25:23;6.18;;;2.67;;
31694;SDS011;18289;51.330;4.946;2022-09-09T09:28:03;8.68;;;2.55;;
31694;SDS011;18289;51.330;4.946;2022-09-09T09:33:15;10.85;;;2.80;;
31694;SDS011;18289;51.330;4.946;2022-09-09T09:35:50;12.20;;;2.67;;
31694;SDS011;18289;51.330;4.946;2022-09-09T09:38:17;7.50;;;2.70;;
31694;SDS011;18289;51.330;4.946;2022-09-09T09:40:50;8.38;;;2.53;;
31694;SDS011;18289;51.330;4.946;2022-09-09T09:45:59;7.95;;;2.33;;
31694;SDS011;18289;51.330;4.946;2022-09-09T09:48:25;6.72;;;2.72;;
31694;SDS011;18289;51.330;4.946;2022-09-09T09:50:56;8.43;;;3.30;;
31694;SDS011;18289;51.330;4.946;2022-09-09T09:53:27;6.57;;;2.67;;
31694;SDS011;18289;51.330;4.946;2022-09-09T09:55:56;10.52;;;3.08;;
31694;SDS011;18289;51.330;4.946;2022-09-09T09:58:30;6.85;;;4.05;;
31694;SDS011;18289;51.330;4.946;2022-09-09T10:00:59;11.00;;;3.55;;
31694;SDS011;18289;51.330;4.946;2022-09-09T10:03:32;7.55;;;2.92;;
31694;SDS011;18289;51.330;4.946;2022-09-09T10:06:06;7.38;;;2.65;;
31694;SDS011;18289;51.330;4.946;2022-09-09T10:08:34;7.15;;;2.90;;
31694;SDS011;18289;51.330;4.946;2022-09-09T10:16:25;5.63;;;2.40;;
31694;SDS011;18289;51.330;4.946;2022-09-09T10:19:19;5.53;;;2.75;;
31694;SDS011;18289;51.330;4.946;2022-09-09T10:22:02;4.63;;;2.47;;
31694;SDS011;18289;51.330;4.946;2022-09-09T10:27:37;6.32;;;2.70;;
31694;SDS011;18289;51.330;4.946;2022-09-09T10:30:42;11.55;;;2.80;;
31694;SDS011;18289;51.330;4.946;2022-09-09T10:33:41;6.35;;;2.97;;
31694;SDS011;18289;51.330;4.946;2022-09-09T10:36:24;7.28;;;2.42;;
31694;SDS011;18289;51.330;4.946;2022-09-09T10:38:58;9.52;;;2.50;;
31694;SDS011;18289;51.330;4.946;2022-09-09T10:44:14;5.40;;;2.58;;
31694;SDS011;18289;51.330;4.946;2022-09-09T10:57:29;8.88;;;2.75;;
31694;SDS011;18289;51.330;4.946;2022-09-09T11:00:16;5.60;;;2.80;;
31694;SDS011;18289;51.330;4.946;2022-09-09T11:02:58;4.55;;;2.90;;
31694;SDS011;18289;51.330;4.946;2022-09-09T11:05:39;7.22;;;3.58;;
31694;SDS011;18289;51.330;4.946;2022-09-09T11:08:12;8.57;;;2.95;;
31694;SDS011;18289;51.330;4.946;2022-09-09T11:13:33;6.95;;;3.00;;
31694;SDS011;18289;51.330;4.946;2022-09-09T11:19:02;4.63;;;2.80;;
31694;SDS011;18289;51.330;4.946;2022-09-09T11:21:46;7.20;;;3.50;;
31694;SDS011;18289;51.330;4.946;2022-09-09T11:27:25;7.70;;;3.33;;
31694;SDS011;18289;51.330;4.946;2022-09-09T11:32:29;7.28;;;3.17;;
31694;SDS011;18289;51.330;4.946;2022-09-09T11:35:21;7.50;;;3.60;;
31694;SDS011;18289;51.330;4.946;2022-09-09T11:38:18;7.43;;;2.83;;
31694;SDS011;18289;51.330;4.946;2022-09-09T11:40:53;7.88;;;2.97;;
31694;SDS011;18289;51.330;4.946;2022-09-09T11:43:25;6.13;;;2.45;;
31694;SDS011;18289;51.330;4.946;2022-09-09T11:45:55;5.68;;;2.72;;
31694;SDS011;18289;51.330;4.946;2022-09-09T11:51:04;7.13;;;2.72;;
31694;SDS011;18289;51.330;4.946;2022-09-09T11:53:32;3.92;;;2.33;;
31694;SDS011;18289;51.330;4.946;2022-09-09T11:56:05;6.15;;;2.67;;
31694;SDS011;18289;51.330;4.946;2022-09-09T11:58:43;7.38;;;3.10;;
31694;SDS011;18289;51.330;4.946;2022-09-09T12:01:30;6.22;;;2.53;;
31694;SDS011;18289;51.330;4.946;2022-09-09T12:04:17;6.28;;;2.53;;
31694;SDS011;18289;51.330;4.946;2022-09-09T12:06:53;8.05;;;2.60;;
31694;SDS011;18289;51.330;4.946;2022-09-09T12:09:26;9.18;;;3.72;;
31694;SDS011;18289;51.330;4.946;2022-09-09T12:12:16;5.63;;;2.83;;
31694;SDS011;18289;51.330;4.946;2022-09-09T12:15:01;6.88;;;3.42;;
31694;SDS011;18289;51.330;4.946;2022-09-09T12:17:52;6.75;;;3.03;;
31694;SDS011;18289;51.330;4.946;2022-09-09T12:33:42;3.58;;;3.05;;
31694;SDS011;18289;51.330;4.946;2022-09-09T12:36:16;4.28;;;2.53;;
31694;SDS011;18289;51.330;4.946;2022-09-09T12:38:53;5.57;;;2.28;;
31694;SDS011;18289;51.330;4.946;2022-09-09T12:41:25;44.08;;;8.25;;
31694;SDS011;18289;51.330;4.946;2022-09-09T12:44:05;24.33;;;5.72;;
31694;SDS011;18289;51.330;4.946;2022-09-09T12:46:35;17.05;;;4.72;;
31694;SDS011;18289;51.330;4.946;2022-09-09T12:49:18;3.42;;;2.22;;
31694;SDS011;18289;51.330;4.946;2022-09-09T12:52:05;4.10;;;1.92;;
31694;SDS011;18289;51.330;4.946;2022-09-09T12:54:38;4.80;;;2.10;;
31694;SDS011;18289;51.330;4.946;2022-09-09T12:57:11;4.18;;;2.08;;
31694;SDS011;18289;51.330;4.946;2022-09-09T12:59:40;5.32;;;1.80;;
31694;SDS011;18289;51.330;4.946;2022-09-09T13:04:50;23.73;;;4.40;;
31694;SDS011;18289;51.330;4.946;2022-09-09T13:07:17;24.73;;;5.57;;
31694;SDS011;18289;51.330;4.946;2022-09-09T13:09:45;4.40;;;2.03;;
31694;SDS011;18289;51.330;4.946;2022-09-09T13:12:16;6.80;;;2.08;;
31694;SDS011;18289;51.330;4.946;2022-09-09T13:14:46;5.18;;;1.80;;
31694;SDS011;18289;51.330;4.946;2022-09-09T13:17:17;2.58;;;1.50;;
31694;SDS011;18289;51.330;4.946;2022-09-09T13:19:48;4.10;;;1.90;;
31694;SDS011;18289;51.330;4.946;2022-09-09T13:22:20;4.80;;;2.30;;
31694;SDS011;18289;51.330;4.946;2022-09-09T13:24:59;4.72;;;2.00;;
31694;SDS011;18289;51.330;4.946;2022-09-09T13:27:29;2.25;;;1.70;;
31694;SDS011;18289;51.330;4.946;2022-09-09T13:29:59;6.72;;;2.10;;
31694;SDS011;18289;51.330;4.946;2022-09-09T13:32:25;2.30;;;1.83;;
31694;SDS011;18289;51.330;4.946;2022-09-09T13:37:31;4.93;;;1.90;;
31694;SDS011;18289;51.330;4.946;2022-09-09T13:39:58;5.43;;;1.73;;
31694;SDS011;18289;51.330;4.946;2022-09-09T13:42:25;2.70;;;1.60;;
31694;SDS011;18289;51.330;4.946;2022-09-09T13:44:53;3.42;;;1.63;;
31694;SDS011;18289;51.330;4.946;2022-09-09T13:47:22;3.63;;;1.52;;
31694;SDS011;18289;51.330;4.946;2022-09-09T13:49:58;5.10;;;1.73;;
31694;SDS011;18289;51.330;4.946;2022-09-09T13:52:34;4.22;;;1.60;;
31694;SDS011;18289;51.330;4.946;2022-09-09T13:55:00;3.17;;;1.50;;
31694;SDS011;18289;51.330;4.946;2022-09-09T13:57:26;3.13;;;1.48;;
31694;SDS011;18289;51.330;4.946;2022-09-09T13:59:53;2.78;;;1.40;;
31694;SDS011;18289;51.330;4.946;2022-09-09T14:02:22;2.58;;;1.60;;
31694;SDS011;18289;51.330;4.946;2022-09-09T14:04:48;2.25;;;1.58;;
31694;SDS011;18289;51.330;4.946;2022-09-09T14:07:16;2.42;;;1.55;;
31694;SDS011;18289;51.330;4.946;2022-09-09T14:09:43;4.63;;;1.73;;
31694;SDS011;18289;51.330;4.946;2022-09-09T14:12:13;1.92;;;1.60;;
31694;SDS011;18289;51.330;4.946;2022-09-09T14:14:40;2.92;;;1.70;;
31694;SDS011;18289;51.330;4.946;2022-09-09T14:17:07;1.95;;;1.60;;
31694;SDS011;18289;51.330;4.946;2022-09-09T14:19:33;2.47;;;1.45;;
31694;SDS011;18289;51.330;4.946;2022-09-09T14:21:59;2.53;;;1.65;;
31694;SDS011;18289;51.330;4.946;2022-09-09T14:24:26;3.72;;;1.80;;
31694;SDS011;18289;51.330;4.946;2022-09-09T14:26:53;2.88;;;1.77;;
31694;SDS011;18289;51.330;4.946;2022-09-09T14:29:19;4.45;;;1.80;;
31694;SDS011;18289;51.330;4.946;2022-09-09T14:31:45;3.25;;;1.77;;
31694;SDS011;18289;51.330;4.946;2022-09-09T14:34:11;3.25;;;2.10;;
31694;SDS011;18289;51.330;4.946;2022-09-09T14:36:37;1.50;;;1.38;;
31694;SDS011;18289;51.330;4.946;2022-09-09T14:39:03;4.07;;;1.85;;
31694;SDS011;18289;51.330;4.946;2022-09-09T14:41:29;4.30;;;1.70;;
31694;SDS011;18289;51.330;4.946;2022-09-09T14:43:55;3.22;;;2.33;;
31694;SDS011;18289;51.330;4.946;2022-09-09T14:46:22;2.38;;;1.50;;
31694;SDS011;18289;51.330;4.946;2022-09-09T14:48:48;3.97;;;1.50;;
31694;SDS011;18289;51.330;4.946;2022-09-09T14:51:22;2.75;;;1.70;;
31694;SDS011;18289;51.330;4.946;2022-09-09T14:53:52;1.73;;;1.55;;
31694;SDS011;18289;51.330;4.946;2022-09-09T14:56:23;3.30;;;2.00;;
31694;SDS011;18289;51.330;4.946;2022-09-09T14:58:54;1.73;;;1.50;;
31694;SDS011;18289;51.330;4.946;2022-09-09T15:01:21;3.00;;;1.75;;
31694;SDS011;18289;51.330;4.946;2022-09-09T15:03:50;2.47;;;1.70;;
31694;SDS011;18289;51.330;4.946;2022-09-09T15:06:18;4.55;;;1.70;;
31694;SDS011;18289;51.330;4.946;2022-09-09T15:08:45;5.07;;;1.50;;
31694;SDS011;18289;51.330;4.946;2022-09-09T15:11:12;3.15;;;1.83;;
31694;SDS011;18289;51.330;4.946;2022-09-09T15:13:40;4.35;;;2.13;;
31694;SDS011;18289;51.330;4.946;2022-09-09T15:16:08;4.00;;;1.67;;
31694;SDS011;18289;51.330;4.946;2022-09-09T15:18:37;2.42;;;1.60;;
31694;SDS011;18289;51.330;4.946;2022-09-09T15:21:08;1.60;;;1.40;;
31694;SDS011;18289;51.330;4.946;2022-09-09T15:23:38;3.58;;;1.65;;
31694;SDS011;18289;51.330;4.946;2022-09-09T15:26:04;2.30;;;1.63;;
31694;SDS011;18289;51.330;4.946;2022-09-09T15:28:34;2.65;;;2.13;;
31694;SDS011;18289;51.330;4.946;2022-09-09T15:31:04;2.22;;;1.45;;
31694;SDS011;18289;51.330;4.946;2022-09-09T15:33:31;3.20;;;1.70;;
31694;SDS011;18289;51.330;4.946;2022-09-09T15:35:58;2.63;;;1.50;;
31694;SDS011;18289;51.330;4.946;2022-09-09T15:38:23;2.60;;;1.50;;
31694;SDS011;18289;51.330;4.946;2022-09-09T15:40:53;3.55;;;2.05;;
31694;SDS011;18289;51.330;4.946;2022-09-09T15:43:20;1.98;;;1.60;;
31694;SDS011;18289;51.330;4.946;2022-09-09T15:45:48;2.50;;;1.45;;
31694;SDS011;18289;51.330;4.946;2022-09-09T15:48:20;3.25;;;1.67;;
31694;SDS011;18289;51.330;4.946;2022-09-09T15:51:01;4.82;;;1.85;;
31694;SDS011;18289;51.330;4.946;2022-09-09T15:53:28;4.57;;;1.60;;
31694;SDS011;18289;51.330;4.946;2022-09-09T15:55:57;3.33;;;1.48;;
31694;SDS011;18289;51.330;4.946;2022-09-09T15:58:24;2.28;;;1.30;;
31694;SDS011;18289;51.330;4.946;2022-09-09T16:00:50;3.42;;;1.23;;
31694;SDS011;18289;51.330;4.946;2022-09-09T16:03:16;1.20;;;1.20;;
31694;SDS011;18289;51.330;4.946;2022-09-09T16:05:42;1.70;;;1.40;;
31694;SDS011;18289;51.330;4.946;2022-09-09T16:08:08;1.85;;;1.23;;
31694;SDS011;18289;51.330;4.946;2022-09-09T16:10:34;2.35;;;1.48;;
31694;SDS011;18289;51.330;4.946;2022-09-09T16:13:00;4.43;;;1.73;;
31694;SDS011;18289;51.330;4.946;2022-09-09T16:15:26;2.22;;;1.42;;
31694;SDS011;18289;51.330;4.946;2022-09-09T16:17:55;2.47;;;1.50;;
31694;SDS011;18289;51.330;4.946;2022-09-09T16:20:21;2.07;;;1.57;;
31694;SDS011;18289;51.330;4.946;2022-09-09T16:22:47;3.65;;;1.80;;
31694;SDS011;18289;51.330;4.946;2022-09-09T16:25:12;3.22;;;2.17;;
31694;SDS011;18289;51.330;4.946;2022-09-09T16:27:39;7.57;;;1.90;;
31694;SDS011;18289;51.330;4.946;2022-09-09T16:30:05;4.00;;;2.00;;
31694;SDS011;18289;51.330;4.946;2022-09-09T16:32:32;2.88;;;2.00;;
31694;SDS011;18289;51.330;4.946;2022-09-09T16:34:59;4.20;;;2.28;;
31694;SDS011;18289;51.330;4.946;2022-09-09T16:37:25;7.63;;;2.63;;
31694;SDS011;18289;51.330;4.946;2022-09-09T16:39:51;6.20;;;3.22;;
31694;SDS011;18289;51.330;4.946;2022-09-09T16:42:16;3.13;;;2.50;;
31694;SDS011;18289;51.330;4.946;2022-09-09T16:44:42;4.05;;;2.85;;
31694;SDS011;18289;51.330;4.946;2022-09-09T16:47:08;7.82;;;3.63;;
31694;SDS011;18289;51.330;4.946;2022-09-09T16:49:33;3.00;;;2.53;;
31694;SDS011;18289;51.330;4.946;2022-09-09T16:51:59;4.50;;;3.13;;
31694;SDS011;18289;51.330;4.946;2022-09-09T16:54:25;3.65;;;2.90;;
31694;SDS011;18289;51.330;4.946;2022-09-09T16:56:51;4.68;;;2.63;;
31694;SDS011;18289;51.330;4.946;2022-09-09T16:59:19;4.25;;;2.90;;
31694;SDS011;18289;51.330;4.946;2022-09-09T17:01:47;7.72;;;3.10;;
31694;SDS011;18289;51.330;4.946;2022-09-09T17:04:15;3.38;;;2.50;;
31694;SDS011;18289;51.330;4.946;2022-09-09T17:06:46;5.15;;;2.97;;
31694;SDS011;18289;51.330;4.946;2022-09-09T17:09:14;2.95;;;2.17;;
31694;SDS011;18289;51.330;4.946;2022-09-09T17:11:40;2.75;;;2.15;;
31694;SDS011;18289;51.330;4.946;2022-09-09T17:14:07;4.05;;;2.40;;
31694;SDS011;18289;51.330;4.946;2022-09-09T17:16:34;3.72;;;2.47;;
31694;SDS011;18289;51.330;4.946;2022-09-09T17:19:01;3.83;;;2.20;;
31694;SDS011;18289;51.330;4.946;2022-09-09T17:21:28;2.13;;;1.90;;
31694;SDS011;18289;51.330;4.946;2022-09-09T17:23:55;2.90;;;2.20;;
31694;SDS011;18289;51.330;4.946;2022-09-09T17:26:23;3.58;;;2.28;;
31694;SDS011;18289;51.330;4.946;2022-09-09T17:28:55;2.45;;;2.25;;